Terminal Aerodrome Forecast
Issued by NWS Melbourne, FL

Home | Current Version | Previous Version | Text Only | Print | Product List | Glossary On
Versions: 1 2 3 4 5 6 7 8 9 10 11 12 13 14 15
000
FTUS42 KMLB 060538
TAFVRB
TAF
KVRB 060538Z 0606/0706 03006KT P6SM VCSH SCT015 BKN100
      TEMPO 0606/0610 5SM SHRA BKN020
     FM061200 36008KT P6SM VCSH SCT020 BKN030
      TEMPO 0612/0616 4SM SHRA BKN020
     FM061600 33015G22KT P6SM SCT020 BKN030
      TEMPO 0616/0620 4SM SHRA BKN020
     FM062000 33013G21KT P6SM SCT020 BKN030
     FM070000 33011KT P6SM FEW020 BKN035=

USA.gov is the U.S. government's official web portal to all federal, state and local government web resources and services.